createdAt,value
2023-03-16T00:00:32.045Z,2.40
2023-03-16T00:03:01.093Z,2.20
2023-03-16T00:05:29.958Z,2.50
2023-03-16T00:07:59.141Z,2.20
2023-03-16T00:10:29.734Z,2.63
2023-03-16T00:12:59.120Z,2.23
2023-03-16T00:15:28.159Z,2.40
2023-03-16T00:17:57.164Z,2.30
2023-03-16T00:20:26.313Z,2.23
2023-03-16T00:22:55.359Z,2.40
2023-03-16T00:25:24.674Z,2.80
2023-03-16T00:27:55.461Z,2.70
2023-03-16T00:30:25.565Z,2.50
2023-03-16T00:32:55.363Z,1.80
2023-03-16T00:35:24.341Z,2.40
2023-03-16T00:37:57.437Z,1.90
2023-03-16T00:40:27.310Z,2.27
2023-03-16T00:42:57.830Z,2.00
2023-03-16T00:45:26.724Z,2.17
2023-03-16T00:47:55.566Z,1.87
2023-03-16T00:50:27.481Z,1.93
2023-03-16T00:52:56.482Z,1.90
2023-03-16T00:55:25.445Z,2.37
2023-03-16T00:57:58.386Z,2.20
2023-03-16T01:00:29.377Z,2.20
2023-03-16T01:02:59.116Z,2.10
2023-03-16T01:05:28.959Z,1.70
2023-03-16T01:07:58.029Z,1.93
2023-03-16T01:10:27.382Z,1.87
2023-03-16T01:12:58.067Z,2.00
2023-03-16T01:15:27.162Z,2.23
2023-03-16T01:17:56.834Z,2.07
2023-03-16T01:20:26.668Z,2.10
2023-03-16T01:22:56.334Z,2.27
2023-03-16T01:25:25.709Z,2.10
2023-03-16T01:27:58.511Z,1.80
2023-03-16T01:30:29.597Z,1.97
2023-03-16T01:32:59.110Z,1.90
2023-03-16T01:35:28.435Z,1.83
2023-03-16T01:37:57.620Z,2.10
2023-03-16T01:40:28.481Z,1.87
2023-03-16T01:43:04.707Z,2.60
2023-03-16T01:46:19.631Z,1.90
2023-03-16T01:48:59.706Z,2.00
2023-03-16T01:51:36.217Z,2.00
2023-03-16T01:54:11.337Z,2.00
2023-03-16T01:56:45.435Z,2.20
2023-03-16T01:59:19.545Z,1.90
2023-03-16T02:01:49.787Z,2.10
2023-03-16T02:04:31.904Z,1.90
2023-03-16T02:07:04.858Z,1.80
2023-03-16T02:09:35.257Z,2.10
2023-03-16T02:12:04.592Z,1.97
2023-03-16T02:14:35.694Z,2.00
2023-03-16T02:17:04.728Z,2.07
2023-03-16T02:19:43.433Z,2.50
2023-03-16T02:22:14.329Z,1.87
2023-03-16T02:24:43.686Z,2.50
2023-03-16T02:27:15.313Z,2.03
2023-03-16T02:29:56.577Z,2.00
2023-03-16T02:32:30.420Z,2.23
2023-03-16T02:35:02.041Z,1.83
2023-03-16T02:37:33.998Z,1.87
2023-03-16T02:40:05.867Z,1.70
2023-03-16T02:42:35.583Z,2.00
2023-03-16T02:45:07.340Z,2.23
2023-03-16T02:47:41.886Z,2.10
2023-03-16T02:50:14.892Z,1.77
2023-03-16T02:52:44.003Z,2.07
2023-03-16T02:55:13.482Z,1.93
2023-03-16T02:57:42.941Z,2.00
2023-03-16T03:00:19.294Z,2.03
2023-03-16T03:02:52.719Z,2.10
2023-03-16T03:05:21.333Z,1.83
2023-03-16T03:07:49.772Z,1.90
2023-03-16T03:10:19.860Z,1.90
2023-03-16T03:12:50.033Z,2.10
2023-03-16T03:15:20.273Z,2.43
2023-03-16T03:18:01.240Z,2.30
2023-03-16T03:20:31.909Z,2.20
2023-03-16T03:23:00.332Z,2.33
2023-03-16T03:25:28.731Z,2.70
2023-03-16T03:27:57.172Z,2.03
2023-03-16T03:30:28.157Z,2.27
2023-03-16T03:32:56.801Z,2.40
2023-03-16T03:35:25.658Z,2.17
2023-03-16T03:37:54.663Z,2.20
2023-03-16T03:40:23.848Z,2.37
2023-03-16T03:42:58.665Z,2.47
2023-03-16T03:45:29.011Z,2.17
2023-03-16T03:47:57.543Z,2.10
2023-03-16T03:50:26.593Z,2.10
2023-03-16T03:53:22.774Z,2.50
2023-03-16T03:56:10.077Z,2.23
2023-03-16T03:58:39.670Z,2.50
2023-03-16T04:01:09.786Z,2.53
2023-03-16T04:03:38.161Z,2.33
2023-03-16T04:06:08.692Z,2.57
2023-03-16T04:08:37.635Z,2.77
2023-03-16T04:11:12.326Z,2.60
2023-03-16T04:13:41.449Z,3.17
2023-03-16T04:16:16.125Z,2.47
2023-03-16T04:18:48.923Z,2.67
2023-03-16T04:21:18.691Z,2.73
2023-03-16T04:23:49.127Z,2.30
2023-03-16T04:26:17.994Z,2.50
2023-03-16T04:28:48.845Z,3.00
2023-03-16T04:31:21.240Z,2.80
2023-03-16T04:33:50.175Z,3.37
2023-03-16T04:36:18.688Z,3.03
2023-03-16T04:38:47.171Z,3.10
2023-03-16T04:41:16.991Z,3.00
2023-03-16T04:43:59.014Z,3.07
2023-03-16T04:46:29.560Z,3.60
2023-03-16T04:49:00.047Z,3.40
2023-03-16T04:51:31.255Z,3.37
2023-03-16T04:54:06.093Z,3.57
2023-03-16T04:56:37.109Z,3.60
2023-03-16T04:59:10.948Z,3.70
2023-03-16T05:01:55.596Z,3.17
2023-03-16T05:04:24.645Z,3.57
2023-03-16T05:06:53.165Z,3.50
2023-03-16T05:09:26.058Z,3.27
2023-03-16T05:11:54.687Z,3.40
2023-03-16T05:14:23.149Z,3.47
2023-03-16T05:17:04.773Z,3.70
2023-03-16T05:19:33.900Z,3.30
2023-03-16T05:22:02.308Z,3.87
2023-03-16T05:24:30.735Z,4.40
2023-03-16T05:26:59.158Z,3.60
2023-03-16T05:29:27.616Z,4.07
2023-03-16T05:31:56.074Z,3.63
2023-03-16T05:34:28.633Z,3.30
2023-03-16T05:36:56.991Z,3.50
2023-03-16T05:39:25.529Z,3.30
2023-03-16T05:41:55.968Z,3.20
2023-03-16T05:44:38.494Z,3.50
2023-03-16T05:47:18.696Z,3.43
2023-03-16T05:49:53.729Z,3.07
2023-03-16T05:52:27.716Z,3.20
2023-03-16T05:54:57.772Z,3.70
2023-03-16T05:57:26.180Z,3.10
2023-03-16T05:59:56.518Z,3.30
2023-03-16T06:02:25.932Z,3.33
2023-03-16T06:04:56.087Z,2.90
2023-03-16T06:07:25.041Z,3.10
2023-03-16T06:09:56.111Z,2.90
2023-03-16T06:12:24.752Z,3.00
2023-03-16T06:14:53.529Z,3.43
2023-03-16T06:17:29.618Z,3.40
2023-03-16T06:20:01.441Z,3.53
2023-03-16T06:22:30.376Z,2.63
2023-03-16T06:24:59.097Z,2.73
2023-03-16T06:27:28.582Z,2.97
2023-03-16T06:30:12.025Z,3.03
2023-03-16T06:32:42.159Z,3.30
2023-03-16T06:35:13.266Z,2.80
2023-03-16T06:37:47.189Z,2.87
2023-03-16T06:40:38.798Z,3.17
2023-03-16T06:43:08.034Z,3.00
2023-03-16T06:45:36.880Z,2.83
2023-03-16T06:56:23.097Z,2.70
2023-03-16T06:59:23.822Z,2.80
2023-03-16T07:02:13.900Z,2.43
2023-03-16T07:05:04.360Z,3.00
2023-03-16T07:07:44.689Z,3.13
2023-03-16T07:10:45.479Z,3.00
2023-03-16T07:16:45.757Z,2.67
2023-03-16T07:19:29.345Z,2.70
2023-03-16T07:22:26.996Z,2.97
2023-03-16T07:25:57.422Z,2.53
2023-03-16T07:28:58.071Z,2.73
2023-03-16T07:31:57.293Z,2.77
2023-03-16T07:38:41.664Z,2.80
2023-03-16T07:40:47.974Z,2.80
2023-03-16T07:47:07.162Z,2.70
2023-03-16T07:49:38.559Z,2.70
2023-03-16T07:52:38.023Z,2.90
2023-03-16T07:55:09.090Z,2.27
2023-03-16T07:57:40.267Z,2.43
2023-03-16T08:00:32.218Z,2.30
2023-03-16T08:03:02.382Z,2.40
2023-03-16T08:05:35.797Z,2.43
2023-03-16T08:08:13.357Z,2.20
2023-03-16T08:10:43.068Z,2.40
2023-03-16T08:13:17.205Z,2.20
2023-03-16T08:15:48.535Z,2.30
2023-03-16T08:18:27.249Z,2.50
2023-03-16T08:20:56.600Z,2.20
2023-03-16T08:23:26.393Z,2.50
2023-03-16T08:25:55.972Z,2.10
2023-03-16T08:28:27.017Z,2.17
2023-03-16T08:30:58.477Z,2.30
2023-03-16T08:33:41.365Z,2.10
2023-03-16T08:36:13.411Z,2.10
2023-03-16T08:38:45.374Z,1.80
2023-03-16T08:41:19.234Z,2.17
2023-03-16T08:43:53.029Z,2.20
2023-03-16T08:46:45.589Z,1.90
2023-03-16T08:49:35.196Z,1.80
2023-03-16T08:52:23.848Z,2.00
2023-03-16T08:55:02.529Z,2.30
2023-03-16T08:57:40.092Z,2.00
2023-03-16T09:00:14.649Z,2.33
2023-03-16T09:02:43.729Z,2.03
2023-03-16T09:05:14.864Z,1.90
2023-03-16T09:07:43.829Z,2.03
2023-03-16T09:10:16.226Z,1.90
2023-03-16T09:12:45.467Z,2.00
2023-03-16T09:15:15.739Z,2.00
2023-03-16T09:17:45.897Z,2.07
2023-03-16T09:20:26.844Z,1.97
2023-03-16T09:23:01.615Z,1.83
2023-03-16T09:25:33.741Z,2.23
2023-03-16T09:28:02.397Z,1.80
2023-03-16T09:30:32.696Z,1.73
2023-03-16T09:33:04.606Z,2.00
2023-03-16T09:35:35.115Z,2.00
2023-03-16T09:38:06.519Z,1.70
2023-03-16T09:40:37.678Z,1.90
2023-03-16T09:43:23.941Z,2.00
2023-03-16T09:46:03.736Z,1.90
2023-03-16T09:48:37.977Z,1.80
2023-03-16T09:51:21.269Z,2.00
2023-03-16T09:53:58.186Z,1.80
2023-03-16T09:56:36.553Z,1.80
2023-03-16T09:59:13.537Z,1.87
2023-03-16T10:01:54.351Z,1.90
2023-03-16T10:04:42.981Z,1.90
2023-03-16T10:07:23.639Z,1.60
2023-03-16T10:10:06.059Z,1.90
2023-03-16T10:12:43.362Z,1.70
2023-03-16T10:15:19.473Z,1.70
2023-03-16T10:17:59.534Z,1.90
2023-03-16T10:20:33.551Z,1.80
2023-03-16T10:23:23.300Z,1.80
2023-03-16T10:25:56.694Z,1.60
2023-03-16T10:28:27.782Z,1.90
2023-03-16T10:31:01.882Z,1.87
2023-03-16T10:33:34.246Z,1.97
2023-03-16T10:36:14.231Z,2.00
2023-03-16T10:38:48.401Z,1.73
2023-03-16T10:41:37.848Z,2.00
2023-03-16T10:44:13.212Z,1.97
2023-03-16T10:46:48.988Z,2.20
2023-03-16T10:49:27.538Z,1.70
2023-03-16T10:52:05.221Z,2.00
2023-03-16T10:54:37.757Z,1.90
2023-03-16T10:57:18.844Z,1.90
2023-03-16T10:59:54.271Z,1.63
2023-03-16T11:02:42.388Z,2.10
2023-03-16T11:05:26.296Z,1.90
2023-03-16T11:08:09.411Z,2.17
2023-03-16T11:10:54.708Z,1.77
2023-03-16T11:13:26.285Z,1.60
2023-03-16T11:16:05.612Z,1.77
2023-03-16T11:18:43.693Z,2.00
2023-03-16T11:21:36.562Z,2.00
2023-03-16T11:24:16.316Z,1.90
2023-03-16T11:26:55.948Z,1.90
2023-03-16T11:29:53.471Z,1.83
2023-03-16T11:32:32.301Z,1.93
2023-03-16T11:35:08.433Z,2.17
2023-03-16T11:37:50.385Z,1.87
2023-03-16T11:40:35.861Z,2.07
2023-03-16T11:43:16.562Z,1.83
2023-03-16T11:45:51.001Z,1.77
2023-03-16T11:48:28.633Z,1.70
2023-03-16T11:51:08.157Z,1.70
2023-03-16T11:53:59.673Z,2.10
2023-03-16T11:56:34.547Z,2.00
2023-03-16T11:59:18.860Z,1.80
2023-03-16T12:02:02.869Z,2.00
2023-03-16T12:04:46.562Z,1.70
2023-03-16T12:07:31.680Z,1.77
2023-03-16T12:10:31.164Z,1.80
2023-03-16T12:13:17.418Z,1.90
2023-03-16T12:15:49.999Z,1.77
2023-03-16T12:18:30.341Z,1.63
2023-03-16T12:21:05.742Z,2.23
2023-03-16T12:23:42.913Z,1.63
2023-03-16T12:26:14.780Z,1.97
2023-03-16T12:28:44.126Z,2.00
2023-03-16T12:31:17.878Z,1.87
2023-03-16T12:34:09.484Z,2.10
2023-03-16T12:36:57.790Z,1.90
2023-03-16T12:39:38.719Z,2.20
2023-03-16T12:42:26.248Z,2.20
2023-03-16T12:44:58.189Z,2.10
2023-03-16T12:47:32.848Z,1.80
2023-03-16T12:50:07.405Z,2.10
2023-03-16T12:52:47.147Z,2.00
2023-03-16T12:55:20.542Z,2.37
2023-03-16T12:57:52.919Z,2.10
2023-03-16T13:00:36.062Z,2.00
2023-03-16T13:03:06.438Z,1.80
2023-03-16T13:05:48.204Z,2.10
2023-03-16T13:08:19.352Z,2.00
2023-03-16T13:11:02.215Z,1.93
2023-03-16T13:13:32.873Z,1.90
2023-03-16T13:16:09.578Z,2.00
2023-03-16T13:18:41.842Z,1.70
2023-03-16T13:21:20.646Z,1.93
2023-03-16T13:23:58.965Z,2.10
2023-03-16T13:26:40.585Z,1.93
2023-03-16T13:29:30.026Z,1.80
2023-03-16T13:32:02.382Z,1.80
2023-03-16T13:34:34.732Z,2.27
2023-03-16T13:37:04.356Z,1.70
2023-03-16T13:39:34.118Z,1.93
2023-03-16T13:42:06.016Z,1.90
2023-03-16T14:03:22.628Z,1.90
2023-03-16T14:06:07.600Z,1.67
2023-03-16T14:08:37.570Z,2.00
2023-03-16T14:11:06.716Z,2.00
2023-03-16T14:13:39.277Z,1.90
2023-03-16T14:16:16.622Z,1.67
2023-03-16T14:18:47.439Z,1.93
2023-03-16T14:21:18.203Z,1.90
2023-03-16T14:23:49.745Z,1.87
2023-03-16T14:26:19.780Z,1.97
2023-03-16T14:28:58.420Z,2.10
2023-03-16T14:31:35.645Z,2.30
2023-03-16T14:34:08.758Z,2.17
2023-03-16T14:36:39.596Z,2.00
2023-03-16T14:39:41.555Z,1.80
2023-03-16T14:42:20.063Z,2.00
2023-03-16T14:44:49.715Z,2.20
2023-03-16T14:47:25.130Z,1.77
2023-03-16T14:49:54.191Z,2.10
2023-03-16T14:52:27.824Z,1.90
2023-03-16T14:54:58.222Z,2.30
2023-03-16T14:57:27.015Z,1.93
2023-03-16T14:59:55.788Z,2.20
2023-03-16T15:02:29.710Z,1.90
2023-03-16T15:04:59.314Z,2.60
2023-03-16T15:07:29.717Z,2.20
2023-03-16T15:10:06.217Z,2.80
2023-03-16T15:12:35.745Z,2.40
2023-03-16T15:15:18.899Z,2.20
2023-03-16T15:17:48.239Z,2.53
2023-03-16T15:20:19.731Z,2.30
2023-03-16T15:22:49.723Z,2.77
2023-03-16T15:25:26.685Z,2.47
2023-03-16T15:27:55.655Z,2.40
2023-03-16T15:30:26.094Z,2.00
2023-03-16T15:32:54.630Z,2.20
2023-03-16T15:35:23.142Z,2.40
2023-03-16T15:37:51.472Z,2.10
2023-03-16T15:40:23.914Z,2.63
2023-03-16T15:42:52.951Z,2.27
2023-03-16T15:45:23.303Z,2.20
2023-03-16T15:47:53.113Z,2.30
2023-03-16T15:50:25.883Z,2.50
2023-03-16T15:53:49.968Z,2.07
2023-03-16T15:56:29.972Z,2.33
2023-03-16T15:59:01.114Z,2.20
2023-03-16T16:01:34.354Z,2.20
2023-03-16T16:04:03.624Z,2.30
2023-03-16T16:06:41.710Z,2.57
2023-03-16T16:10:02.600Z,2.30
2023-03-16T16:12:52.770Z,2.47
2023-03-16T16:15:39.063Z,2.13
2023-03-16T16:18:54.801Z,2.20
2023-03-16T16:22:22.818Z,2.03
2023-03-16T16:25:31.901Z,2.17
2023-03-16T16:32:46.886Z,1.97
2023-03-16T16:39:36.188Z,2.07
2023-03-16T16:42:35.220Z,2.20
2023-03-16T16:45:21.020Z,2.20
2023-03-16T16:47:52.320Z,2.07
2023-03-16T16:50:23.408Z,2.20
2023-03-16T16:52:52.752Z,2.13
2023-03-16T16:55:41.917Z,2.53
2023-03-16T16:58:46.119Z,2.33
2023-03-16T17:01:27.747Z,2.23
2023-03-16T17:03:56.989Z,2.63
2023-03-16T17:06:26.686Z,2.73
2023-03-16T17:13:44.747Z,2.33
2023-03-16T17:16:34.449Z,2.30
2023-03-16T17:19:03.071Z,2.60
2023-03-16T17:21:32.302Z,2.20
2023-03-16T17:24:01.591Z,2.23
2023-03-16T17:26:32.980Z,3.60
2023-03-16T17:29:03.718Z,10.93
2023-03-16T17:31:36.674Z,20.83
2023-03-16T17:34:16.616Z,18.83
2023-03-16T17:36:45.769Z,12.30
2023-03-16T17:39:18.809Z,8.20
2023-03-16T17:41:47.766Z,10.17
2023-03-16T17:44:20.052Z,5.60
2023-03-16T17:46:53.106Z,4.27
2023-03-16T17:49:23.342Z,4.30
2023-03-16T17:51:51.974Z,3.50
2023-03-16T17:54:20.497Z,5.87
2023-03-16T17:56:51.088Z,4.40
2023-03-16T17:59:22.968Z,4.63
2023-03-16T18:40:55.986Z,3.40
2023-03-16T18:43:27.101Z,3.43
2023-03-16T18:45:56.928Z,3.53
2023-03-16T18:48:30.498Z,3.80
2023-03-16T18:50:59.243Z,4.60
2023-03-16T18:53:29.676Z,4.20
2023-03-16T18:55:59.625Z,4.07
2023-03-16T18:59:18.993Z,4.63
2023-03-16T19:01:48.548Z,4.83
2023-03-16T19:04:22.746Z,4.20
2023-03-16T19:06:53.723Z,3.47
2023-03-16T19:09:24.371Z,3.67
2023-03-16T19:11:54.534Z,3.20
2023-03-16T19:14:46.463Z,3.30
2023-03-16T19:17:43.027Z,3.20
2023-03-16T19:20:16.785Z,3.53
2023-03-16T19:22:47.384Z,3.40
2023-03-16T19:25:27.225Z,4.00
2023-03-16T19:31:49.945Z,3.40
2023-03-16T19:34:21.439Z,3.67
2023-03-16T19:36:56.242Z,3.63
2023-03-16T19:39:33.655Z,3.47
2023-03-16T19:46:43.708Z,3.90
2023-03-16T22:02:01.315Z,4.20
2023-03-16T22:04:31.210Z,4.27
2023-03-16T22:07:02.177Z,4.13
2023-03-16T22:09:39.628Z,4.47
2023-03-16T22:12:13.680Z,4.60
2023-03-16T22:14:49.686Z,3.87
2023-03-16T22:17:29.865Z,4.53
2023-03-16T22:20:02.053Z,4.13
2023-03-16T22:22:33.044Z,4.30
2023-03-16T22:25:07.202Z,4.57
2023-03-16T22:27:54.944Z,4.10
2023-03-16T22:30:25.549Z,4.30
2023-03-16T22:32:58.828Z,4.17
2023-03-16T22:35:53.341Z,4.57
2023-03-16T22:38:22.849Z,5.10
2023-03-16T22:40:54.308Z,4.30
2023-03-16T22:43:29.628Z,4.50
2023-03-16T22:45:58.431Z,4.27
2023-03-16T22:48:30.295Z,3.97
2023-03-16T22:51:01.822Z,3.73
2023-03-16T22:53:37.431Z,4.20
2023-03-16T22:56:06.938Z,3.90
2023-03-16T22:58:37.869Z,4.70
2023-03-16T23:01:17.152Z,4.03
2023-03-16T23:03:48.402Z,4.37
2023-03-16T23:06:18.788Z,4.90
2023-03-16T23:08:47.746Z,4.47
2023-03-16T23:11:18.722Z,4.73
2023-03-16T23:13:47.731Z,4.37
2023-03-16T23:16:23.134Z,4.00
2023-03-16T23:18:57.123Z,4.43
2023-03-16T23:21:27.892Z,4.50
2023-03-16T23:24:04.052Z,4.30
2023-03-16T23:26:33.533Z,4.60
2023-03-16T23:29:01.862Z,4.83
2023-03-16T23:31:30.929Z,4.20
2023-03-16T23:34:00.807Z,4.10
2023-03-16T23:36:30.001Z,4.90
2023-03-16T23:38:58.418Z,4.17
2023-03-16T23:41:27.041Z,4.50
2023-03-16T23:43:55.870Z,3.93
2023-03-16T23:46:26.075Z,3.87
2023-03-16T23:48:57.010Z,4.03
2023-03-16T23:51:31.395Z,4.63
2023-03-16T23:54:00.116Z,4.57
2023-03-16T23:56:28.502Z,3.90
2023-03-16T23:58:57.875Z,4.40
